Latest Coastal Weather Observations for Truscott

IDW60701

Issued at 7:03 pm WST Sunday 9 August 2020 (issued every 10 minutes, with the page automatically refreshed every 10 minutes)

About coastal observations | Map of coastal stations | Coastal observations for WA | Marine services | Other Formats
Station Details ID: 001020 Name: TRUSCOTT Lat: -14.09 Lon: 126.39 Height: 51.0 m
Data from the previous 72 hours. | See also: Recent months at Truscott
Date/Time
WST
Wind Sea
Height
m
Swell Vis
km
Cloud Weather Temp
°C
Press
hPa
Rain since
9am
mm
Dir  Spd
kts
Gust
kts
Height
m
Period
s
Dir
09/07:00pm NE 4 7 - - - - 10 Clear - 25.2 1012.7 0.0
09/06:30pm NE 4 6 - - - - 10 - - 25.3 1012.4 0.0
09/06:00pm NNE 4 7 - - - - 10 - - 24.9 1011.8 0.0
09/05:30pm NNE 4 6 - - - - 10 - - 26.6 1011.8 0.0
09/05:00pm NNE 6 9 - - - - 10 - - 28.1 1011.7 0.0
09/04:30pm NNE 7 11 - - - - 10 - - 29.1 1011.5 0.0
09/04:00pm NNE 8 13 - - - - 10 - - 29.7 1011.4 0.0
09/03:30pm NNE 8 11 - - - - 10 - - 30.7 1011.3 0.0
09/03:00pm NE 6 9 - - - - 10 - - 32.2 1011.0 0.0
09/02:30pm ENE 7 11 - - - - 10 - - 32.4 1011.3 0.0
09/02:00pm NE 7 12 - - - - 10 - - 32.6 1011.5 0.0
09/01:30pm ENE 6 11 - - - - 10 - - 31.7 1011.8 0.0
09/01:00pm ENE 6 11 - - - - 10 - - 31.7 1012.1 0.0
09/12:30pm E 9 13 - - - - 10 - - 31.5 1012.4 0.0
09/12:00pm ENE 9 13 - - - - 10 - - 31.1 1012.7 0.0
09/11:30am E 9 14 - - - - 10 - - 30.4 1013.5 0.0
09/11:00am ENE 9 15 - - - - 10 - - 29.4 1014.0 0.0
09/10:30am E 9 16 - - - - 10 - - 29.1 1014.2 0.0
09/10:00am E 8 14 - - - - 10 - - 27.4 1014.7 0.0
09/09:30am ENE 7 12 - - - - 10 - - 28.0 1014.8 0.0
09/09:00am E 7 11 - - - - 10 - - 27.7 1014.7 0.0
09/08:30am E 6 8 - - - - 10 - - 26.6 1014.8 0.0
09/08:00am ENE 4 7 - - - - 10 - - 25.1 1014.7 0.0
09/07:30am ENE 3 5 - - - - 10 - - 22.7 1014.4 0.0
09/07:00am SE 4 6 - - - - 10 - - 21.6 1014.1 0.0
09/06:30am SE 5 6 - - - - 10 - - 21.3 1014.1 0.0
09/06:00am SSE 5 6 - - - - 10 - - 17.2 1013.8 0.0
09/05:30am S 3 4 - - - - 10 - - 17.5 1013.7 0.0
09/05:00am SSE 4 5 - - - - 10 - - 17.5 1013.4 0.0
09/04:30am SSE 4 5 - - - - 10 - - 17.9 1013.2 0.0
09/04:00am SSE 3 5 - - - - 10 - - 16.8 1013.3 0.0
09/03:30am CALM 0 1 - - - - 10 - - 17.1 1013.2 0.0
09/03:00am SSW 2 3 - - - - 10 - - 18.1 1012.8 0.0
09/02:30am SSW 4 5 - - - - 10 - - 18.7 1013.0 0.0
09/02:00am SSW 4 5 - - - - 10 - - 18.3 1013.1 0.0
09/01:30am SSW 4 4 - - - - 10 - - 17.7 1013.1 0.0
09/01:00am CALM 0 0 - - - - 10 - - 17.8 1013.3 0.0
09/12:30am CALM 0 0 - - - - 10 - - 17.3 1013.5 0.0
09/12:00am CALM 0 0 - - - - 10 - - 17.8 1013.3 0.0
 
Date/Time
WST
Wind Sea
Height
m
Swell Vis
km
Cloud Weather Temp
°C
Press
hPa
Rain since
9am
mm
Dir  Spd
kts
Gust
kts
Height
m
Period
s
Dir
08/11:30pm CALM 0 0 - - - - 10 - - 18.3 1013.7 0.0
08/11:00pm SE 1 3 - - - - 10 - - 17.5 1013.7 0.0
08/10:30pm CALM 0 0 - - - - 10 - - 18.1 1013.5 0.0
08/10:00pm CALM 0 0 - - - - 10 - - 17.9 1013.6 0.0
08/09:30pm CALM 0 0 - - - - 10 - - 18.4 1013.8 0.0
08/09:00pm CALM 0 3 - - - - 10 - - 19.1 1013.5 0.0
08/08:30pm E 3 4 - - - - 10 - - 19.4 1013.6 0.0
08/08:00pm ENE 3 4 - - - - 10 - - 20.0 1013.3 0.0
08/07:30pm ENE 4 5 - - - - 10 - - 21.2 1013.1 0.0
08/07:00pm ENE 4 5 - - - - 10 - - 21.8 1012.7 0.0
08/06:30pm NE 4 5 - - - - 10 - - 22.8 1012.4 0.0
08/06:00pm NNE 3 5 - - - - 10 - - 23.4 1011.9 0.0
08/05:30pm NNE 1 4 - - - - 10 - - 25.7 1011.9 0.0
08/05:00pm NNE 7 10 - - - - 10 - - 27.1 1011.6 0.0
08/04:30pm NNE 9 12 - - - - 10 - - 27.9 1011.1 0.0
08/04:00pm NNE 9 15 - - - - 10 - - 28.7 1011.0 0.0
08/03:30pm N 8 13 - - - - 10 - - 29.3 1010.9 0.0
08/03:00pm N 9 12 - - - - 10 - - 29.1 1010.7 0.0
08/02:30pm N 10 14 - - - - 10 - - 28.4 1010.8 0.0
08/02:00pm NNE 7 12 - - - - 10 - - 30.5 1010.9 0.0
08/01:30pm E 6 10 - - - - 10 - - 31.3 1011.3 0.0
08/01:00pm ENE 8 14 - - - - 10 - - 30.2 1011.7 0.0
08/12:30pm E 8 13 - - - - 10 - - 30.1 1012.2 0.0
08/12:00pm ENE 9 14 - - - - 10 - - 29.3 1012.3 0.0
08/11:30am E 10 15 - - - - 10 - - 28.8 1012.9 0.0
08/11:00am E 9 16 - - - - 10 - - 29.2 1013.3 0.0
08/10:30am E 9 16 - - - - 10 - - 28.8 1013.7 0.0
08/10:00am ESE 9 14 - - - - 10 - - 27.9 1013.9 0.0
08/09:30am ESE 10 17 - - - - 10 - - 27.6 1014.0 0.0
08/09:00am ESE 11 17 - - - - 10 - - 26.6 1013.9 0.0
08/08:30am SE 9 18 - - - - 10 - - 25.7 1014.1 0.0
08/08:00am ESE 6 11 - - - - 10 - - 24.8 1014.0 0.0
08/07:30am SE 5 9 - - - - 10 - - 23.0 1013.9 0.0
08/07:00am SE 3 5 - - - - 10 - - 21.6 1013.6 0.0
08/06:30am SSE 4 6 - - - - 10 - - 20.5 1013.4 0.0
08/06:00am SSE 4 6 - - - - 10 - - 18.7 1012.7 0.0
08/05:30am SSE 4 5 - - - - 10 - - 19.2 1012.7 0.0
08/05:00am SE 4 6 - - - - 10 - - 19.2 1012.5 0.0
08/04:30am SE 4 6 - - - - 10 - - 19.0 1012.6 0.0
08/04:00am SSE 5 6 - - - - 10 - - 18.8 1012.6 0.0
08/03:30am S 4 4 - - - - 10 - - 17.8 1012.5 0.0
08/03:00am S 4 5 - - - - 10 - - 17.8 1012.3 0.0
08/02:30am S 3 4 - - - - 10 - - 18.0 1012.5 0.0
08/02:00am S 3 3 - - - - 10 - - 18.1 1012.7 0.0
08/01:30am SE 3 4 - - - - 10 - - 17.6 1013.0 0.0
08/01:00am SE 4 5 - - - - 10 - - 18.9 1013.1 0.0
08/12:30am SE 4 5 - - - - 10 - - 18.7 1013.1 0.0
08/12:00am E 4 5 - - - - 10 - - 18.1 1013.3 0.0
 
Date/Time
WST
Wind Sea
Height
m
Swell Vis
km
Cloud Weather Temp
°C
Press
hPa
Rain since
9am
mm
Dir  Spd
kts
Gust
kts
Height
m
Period
s
Dir
07/11:30pm ENE 3 5 - - - - 10 - - 18.3 1013.7 0.0
07/11:00pm ENE 4 5 - - - - 10 - - 19.2 1013.8 0.0
07/10:30pm E 5 6 - - - - 10 - - 19.6 1013.8 0.0
07/10:00pm ENE 4 5 - - - - 10 - - 19.6 1013.8 0.0
07/09:30pm E 4 5 - - - - 10 - - 19.7 1013.9 0.0
07/09:00pm E 3 4 - - - - 10 - - 19.9 1013.6 0.0
07/08:30pm ENE 4 6 - - - - 10 - - 19.4 1013.6 0.0
07/08:00pm NE 3 4 - - - - 10 - - 19.9 1013.3 0.0
07/07:30pm NE 4 5 - - - - 10 - - 20.6 1013.1 0.0
07/07:00pm NE 3 4 - - - - 10 - - 21.6 1012.8 0.0
07/06:30pm NE 4 6 - - - - 10 - - 22.9 1012.5 0.0
07/06:00pm NNE 5 8 - - - - 10 - - 23.5 1012.0 0.0
07/05:30pm N 6 9 - - - - 10 - - 24.1 1011.6 0.0
07/05:00pm NNE 7 11 - - - - 10 - - 25.3 1011.4 0.0
07/04:30pm N 9 13 - - - - 10 - - 26.0 1011.2 0.0
07/04:00pm N 10 14 - - - - 10 - - 26.5 1011.0 0.0
07/03:30pm N 10 15 - - - - 10 - - 26.9 1011.0 0.0
07/03:00pm N 10 15 - - - - 10 - - 27.4 1010.5 0.0
07/02:30pm N 7 13 - - - - 10 - - 28.9 1010.6 0.0
07/02:00pm ENE 7 9 - - - - 10 - - 29.6 1010.8 0.0
07/01:30pm ENE 7 9 - - - - 10 - - 29.9 1011.1 0.0
07/01:00pm ENE 6 10 - - - - 10 - - 29.4 1011.4 0.0
07/12:30pm ENE 9 13 - - - - 10 - - 28.7 1011.7 0.0
07/12:00pm E 9 13 - - - - 10 - - 28.4 1011.6 0.0
07/11:30am ESE 10 16 - - - - 10 - - 28.0 1012.4 0.0
07/11:00am E 10 15 - - - - 10 - - 28.2 1012.5 0.0
07/10:30am E 10 16 - - - - 10 - - 27.6 1012.8 0.0
07/10:00am ESE 9 13 - - - - 10 - - 27.0 1013.0 0.0
07/09:30am ESE 9 16 - - - - 10 - - 26.2 1013.2 0.0
07/09:00am SE 9 14 - - - - 10 - - 25.3 1013.2 0.0
07/08:30am ESE 8 13 - - - - 10 - - 24.9 1013.5 0.0
07/08:00am ESE 6 10 - - - - 10 - - 23.6 1013.3 0.0
07/07:30am ESE 5 9 - - - - 10 - - 22.4 1013.0 0.0
07/07:00am SSE 3 4 - - - - 10 - - 21.1 1012.7 0.0
07/06:30am SE 3 5 - - - - 10 - - 18.9 1012.4 0.0
07/06:00am SSE 4 5 - - - - 10 - - 17.9 1011.8 0.0
07/05:30am SSE 4 6 - - - - 10 - - 18.2 1011.6 0.0
07/05:00am SSE 4 5 - - - - 10 - - 18.1 1011.5 0.0
07/04:30am SSE 4 4 - - - - 10 - - 16.7 1011.2 0.0
07/04:00am CALM 0 0 - - - - 10 - - 17.0 1011.0 0.0
07/03:30am SSW 5 5 - - - - 10 - - 17.8 1010.7 0.0
07/03:00am CALM 0 0 - - - - 10 - - 17.8 1010.5 0.0
07/02:30am CALM 0 0 - - - - 10 - - 17.6 1010.7 0.0
07/02:00am CALM 0 0 - - - - 10 - - 18.2 1010.7 0.0
07/01:30am ENE 1 3 - - - - 10 - - 17.9 1010.8 0.0
07/01:00am CALM 0 0 - - - - 10 - - 18.3 1010.9 0.0
07/12:30am CALM 0 0 - - - - 10 - - 18.7 1010.9 0.0
07/12:00am WNW 3 4 - - - - 10 - - 19.8 1010.9 0.0
 
Date/Time
WST
Wind Sea
Height
m
Swell Vis
km
Cloud Weather Temp
°C
Press
hPa
Rain since
9am
mm
Dir  Spd
kts
Gust
kts
Height
m
Period
s
Dir
06/11:30pm W 3 5 - - - - 10 - - 21.1 1011.2 0.0
06/11:00pm W 6 8 - - - - 10 - - 22.2 1011.0 0.0
06/10:30pm W 7 9 - - - - 10 - - 22.5 1010.9 0.0
06/10:00pm WSW 6 8 - - - - 10 - - 22.9 1011.0 0.0
06/09:30pm WSW 6 7 - - - - 10 - - 23.0 1010.9 0.0
06/09:00pm WSW 5 7 - - - - 10 - - 23.1 1010.5 0.0
06/08:30pm W 5 7 - - - - 10 - - 23.1 1010.6 0.0
06/08:00pm W 4 5 - - - - 10 - - 22.0 1010.6 0.0
06/07:30pm W 4 5 - - - - 10 - - 22.8 1010.4 0.0

Other formats

Comma delimited format used in spreadsheet applications
http://www.bom.gov.au/fwo/IDW60701/IDW60701.95101.axf

JavaScript Object Notation format (JSON) in row-major order
http://www.bom.gov.au/fwo/IDW60701/IDW60701.95101.json

Data quality

Most of these data are generated automatically and are frequently updated. Quality checks on data are not normally performed. It is possible for incorrect values to appear. Refer to information at About Latest Weather Observations and please check the disclaimer before using these data.